Time;durP1;ratioP1;P1;durP2;ratioP2;P2;SDS_P1;SDS_P2;PMS_P1;PMS_P2;Temp;Humidity;BMP_temperature;BMP_pressure;BME280_temperature;BME280_humidity;BME280_pressure;Samples;Min_cycle;Max_cycle;Signal;HPM_P1;HPM_P2
2023/08/05 06:01:02;;;;;;;12.20;5.30;;;15.90;78.40;;;;;;5107697;28;20089;-84
2023/08/05 06:03:33;;;;;;;7.53;5.30;;;16.00;78.20;;;;;;5110718;28;20066;-75
2023/08/05 06:06:00;;;;;;;7.85;4.88;;;16.00;77.80;;;;;;5109397;28;20511;-76
2023/08/05 06:08:28;;;;;;;13.43;5.38;;;16.00;77.50;;;;;;5111583;28;20035;-78
2023/08/05 06:10:55;;;;;;;10.65;5.65;;;16.10;77.30;;;;;;5108489;28;20048;-74
2023/08/05 06:13:23;;;;;;;9.20;5.20;;;16.10;77.40;;;;;;5097921;28;20043;-79
2023/08/05 06:15:52;;;;;;;8.07;5.15;;;16.10;77.30;;;;;;5111192;28;20040;-76
2023/08/05 06:18:20;;;;;;;8.52;4.70;;;16.10;77.20;;;;;;5110918;28;20035;-78
2023/08/05 06:20:50;;;;;;;8.63;5.40;;;16.10;77.00;;;;;;5110516;28;20401;-81
2023/08/05 06:23:17;;;;;;;;;;;16.10;76.40;;;;;;5112076;28;20382;-75
2023/08/05 06:25:45;;;;;;;10.85;4.95;;;16.10;75.80;;;;;;5104435;28;19908;-81
2023/08/05 06:28:12;;;;;;;7.03;4.65;;;16.20;75.70;;;;;;5109698;28;20039;-86
2023/08/05 06:30:46;;;;;;;11.13;4.93;;;16.20;75.70;;;;;;5102766;28;20044;-79
2023/08/05 06:33:13;;;;;;;6.20;4.80;;;16.20;75.90;;;;;;5089410;28;20044;-82
2023/08/05 06:35:41;;;;;;;10.50;5.05;;;16.20;75.90;;;;;;5091904;28;20405;-84
2023/08/05 06:38:08;;;;;;;11.85;4.85;;;16.20;76.30;;;;;;5083629;28;20044;-79
2023/08/05 06:40:35;;;;;;;8.65;5.35;;;16.20;76.80;;;;;;5092499;28;20036;-77
2023/08/05 06:43:02;;;;;;;9.68;4.55;;;16.10;77.20;;;;;;5089908;28;20035;-85
2023/08/05 06:45:31;;;;;;;7.32;4.95;;;16.10;77.50;;;;;;5072090;28;20032;-82
2023/08/05 06:47:58;;;;;;;8.13;4.60;;;16.10;77.70;;;;;;5101089;28;20368;-83
2023/08/05 06:50:25;;;;;;;10.75;4.57;;;16.10;77.90;;;;;;5098185;28;20105;-77
2023/08/05 06:52:52;;;;;;;8.60;5.05;;;16.10;78.20;;;;;;5124717;27;20035;-75
2023/08/05 06:55:20;;;;;;;13.50;5.18;;;16.10;78.20;;;;;;5126725;27;20031;-78
2023/08/05 06:57:48;;;;;;;8.80;5.30;;;16.10;78.00;;;;;;5109369;28;20063;-76
2023/08/05 07:00:16;;;;;;;9.48;5.22;;;16.10;77.90;;;;;;5097985;28;20058;-80
2023/08/05 07:02:44;;;;;;;10.93;5.82;;;16.10;77.90;;;;;;5106519;28;20039;-79
2023/08/05 07:05:11;;;;;;;9.43;5.53;;;16.10;77.70;;;;;;5103885;28;20310;-81
2023/08/05 07:07:38;;;;;;;16.60;5.82;;;16.10;77.50;;;;;;5107839;28;20059;-75
2023/08/05 07:10:08;;;;;;;16.30;5.70;;;16.00;77.40;;;;;;5108937;28;20542;-76
2023/08/05 07:12:35;;;;;;;15.60;5.75;;;16.00;77.50;;;;;;5109111;28;20486;-74
2023/08/05 07:15:03;;;;;;;14.82;6.03;;;16.00;77.60;;;;;;5107856;28;20043;-74
2023/08/05 07:17:31;;;;;;;14.85;5.68;;;16.00;77.60;;;;;;5087225;28;20044;-75
2023/08/05 07:19:59;;;;;;;11.25;5.68;;;16.00;78.10;;;;;;5100205;28;20027;-75
2023/08/05 07:22:26;;;;;;;14.27;5.63;;;16.00;78.20;;;;;;5109594;28;20065;-75
2023/08/05 07:24:56;;;;;;;13.75;6.75;;;16.00;78.50;;;;;;5107334;28;20042;-76
2023/08/05 07:27:23;;;;;;;;;;;15.90;80.50;;;;;;5098590;28;20048;-76
2023/08/05 07:29:50;;;;;;;9.48;5.60;;;15.70;81.80;;;;;;5098007;28;19912;-77
2023/08/05 07:32:17;;;;;;;14.05;6.60;;;15.60;83.30;;;;;;5108973;28;20335;-78
2023/08/05 07:34:47;;;;;;;16.50;6.18;;;15.50;83.60;;;;;;5106373;28;20035;-79
2023/08/05 07:37:16;;;;;;;14.65;6.50;;;15.40;84.80;;;;;;5089382;28;20040;-77
2023/08/05 07:39:47;;;;;;;17.98;6.72;;;15.40;85.30;;;;;;5079201;28;20040;-79
2023/08/05 07:42:15;;;;;;;17.20;7.03;;;15.30;86.60;;;;;;5109013;28;20059;-76
2023/08/05 07:44:42;;;;;;;14.50;7.35;;;15.20;87.10;;;;;;5109056;28;20028;-78
2023/08/05 07:47:09;;;;;;;14.52;7.22;;;15.20;87.60;;;;;;5094937;28;20040;-80
2023/08/05 07:49:37;;;;;;;13.60;7.30;;;15.20;87.70;;;;;;5094783;28;20035;-77
2023/08/05 07:52:06;;;;;;;15.00;7.50;;;15.20;87.50;;;;;;5089505;28;20052;-80
2023/08/05 07:54:34;;;;;;;14.40;7.22;;;15.20;87.50;;;;;;5071619;28;20466;-78
2023/08/05 07:57:01;;;;;;;14.18;6.53;;;15.10;86.90;;;;;;5093013;28;20036;-77
2023/08/05 07:59:28;;;;;;;9.48;5.53;;;15.10;87.40;;;;;;5095704;28;20412;-81
2023/08/05 08:01:57;;;;;;;10.40;6.00;;;15.10;87.00;;;;;;5109084;28;20024;-77
2023/08/05 08:04:24;;;;;;;7.32;5.10;;;15.10;86.80;;;;;;5109393;28;20036;-80
2023/08/05 08:06:52;;;;;;;7.25;5.32;;;15.10;87.40;;;;;;5068498;28;20040;-78
2023/08/05 08:09:19;;;;;;;8.63;5.40;;;15.20;87.40;;;;;;5073789;28;20039;-79
2023/08/05 08:11:47;;;;;;;8.82;4.95;;;15.20;87.10;;;;;;5099892;28;20109;-78
2023/08/05 08:14:14;;;;;;;9.63;4.90;;;15.20;86.70;;;;;;5106408;28;20047;-79
2023/08/05 08:16:41;;;;;;;6.97;5.18;;;15.20;86.90;;;;;;5109369;28;20046;-79
2023/08/05 08:19:09;;;;;;;9.57;4.50;;;15.20;86.70;;;;;;5089987;28;20083;-80
2023/08/05 08:21:36;;;;;;;9.48;5.03;;;15.20;86.20;;;;;;5088933;28;20039;-78
2023/08/05 08:24:05;;;;;;;11.43;5.28;;;15.20;86.20;;;;;;5106354;28;20118;-79
2023/08/05 08:26:32;;;;;;;12.05;5.38;;;15.20;86.00;;;;;;5095517;28;20101;-80
2023/08/05 08:28:59;;;;;;;9.38;5.40;;;15.20;86.60;;;;;;5111016;28;20109;-75
2023/08/05 08:31:30;;;;;;;13.23;6.50;;;15.20;86.80;;;;;;5089552;28;20134;-75
2023/08/05 08:33:58;;;;;;;7.88;5.97;;;15.20;86.80;;;;;;5093760;28;20032;-75
2023/08/05 08:36:25;;;;;;;18.98;9.00;;;15.20;86.50;;;;;;5109476;28;20044;-74
2023/08/05 08:38:52;;;;;;;14.60;8.48;;;15.20;86.90;;;;;;5113526;28;20112;-74
2023/08/05 08:41:20;;;;;;;12.45;6.85;;;15.20;87.40;;;;;;5104834;28;20481;-75
2023/08/05 08:43:48;;;;;;;9.95;6.55;;;15.10;87.50;;;;;;5090945;28;20048;-75
2023/08/05 08:46:15;;;;;;;12.65;7.15;;;15.20;87.70;;;;;;5091761;28;20073;-75
2023/08/05 08:48:44;;;;;;;11.30;7.07;;;15.10;87.00;;;;;;5066382;28;20024;-80
2023/08/05 08:51:12;;;;;;;20.35;10.55;;;15.20;86.90;;;;;;5076013;28;20046;-81
2023/08/05 08:53:39;;;;;;;22.23;11.10;;;15.20;86.30;;;;;;5077940;28;20472;-75
2023/08/05 08:56:06;;;;;;;11.13;7.20;;;15.20;87.00;;;;;;5112600;28;20031;-81
2023/08/05 08:58:33;;;;;;;10.23;5.88;;;15.20;86.70;;;;;;5094221;28;20040;-80
2023/08/05 09:01:00;;;;;;;10.13;5.50;;;15.20;87.40;;;;;;5106817;28;20058;-78
2023/08/05 09:03:28;;;;;;;11.32;6.30;;;15.20;87.60;;;;;;5112458;28;20046;-77
2023/08/05 09:05:58;;;;;;;9.05;6.18;;;15.20;87.50;;;;;;5092735;28;20409;-80
2023/08/05 09:08:26;;;;;;;11.07;5.82;;;15.20;87.20;;;;;;5078033;28;20352;-80
2023/08/05 09:10:53;;;;;;;9.85;5.97;;;15.30;86.20;;;;;;5066824;28;20093;-78
2023/08/05 09:13:21;;;;;;;8.68;5.57;;;15.20;86.10;;;;;;5112717;28;20042;-76
2023/08/05 09:15:49;;;;;;;9.60;5.88;;;15.30;85.30;;;;;;5112600;28;20044;-76
2023/08/05 09:18:16;;;;;;;12.52;6.38;;;15.30;85.30;;;;;;5110813;28;20053;-80
2023/08/05 09:20:43;;;;;;;7.60;5.00;;;15.40;85.10;;;;;;5103608;28;20032;-76
2023/08/05 09:23:11;;;;;;;10.77;5.43;;;15.40;84.90;;;;;;5093118;28;20142;-75
2023/08/05 09:25:42;;;;;;;8.25;5.22;;;15.40;84.80;;;;;;5074428;28;20441;-76
2023/08/05 09:28:10;;;;;;;9.32;5.00;;;15.40;84.50;;;;;;5073932;28;20398;-78
2023/08/05 09:30:37;;;;;;;9.57;5.00;;;15.40;84.80;;;;;;5088307;28;20044;-78
2023/08/05 09:33:05;;;;;;;8.77;5.50;;;15.40;84.80;;;;;;5092140;28;20078;-77
2023/08/05 09:35:32;;;;;;;8.90;4.97;;;15.40;84.70;;;;;;5063529;28;20473;-78
2023/08/05 09:38:01;;;;;;;10.00;5.32;;;15.40;84.60;;;;;;5111798;28;20031;-77
2023/08/05 09:40:39;;;;;;;11.18;5.05;;;15.40;84.90;;;;;;5111536;28;20040;-73
2023/08/05 09:43:07;;;;;;;10.00;5.60;;;15.40;84.90;;;;;;5093487;28;20036;-73
2023/08/05 09:45:35;;;;;;;8.65;5.45;;;15.40;85.00;;;;;;5098568;28;20551;-75
2023/08/05 09:48:13;;;;;;;12.35;5.53;;;15.40;85.20;;;;;;5080975;28;20051;-74
2023/08/05 09:50:40;;;;;;;8.95;4.80;;;15.40;85.00;;;;;;5098971;28;20084;-75
2023/08/05 09:53:10;;;;;;;12.05;5.03;;;15.40;84.90;;;;;;5099686;28;20061;-75
2023/08/05 09:55:41;;;;;;;8.45;5.15;;;15.40;84.70;;;;;;5110612;28;20035;-77
2023/08/05 09:58:08;;;;;;;9.02;5.47;;;15.40;85.00;;;;;;5111343;28;20032;-76
2023/08/05 10:00:41;;;;;;;9.98;6.10;;;15.50;85.30;;;;;;5110708;28;20103;-77
2023/08/05 10:03:13;;;;;;;8.27;5.90;;;15.40;84.90;;;;;;5090805;28;20048;-76
2023/08/05 10:05:43;;;;;;;10.10;5.97;;;15.50;85.00;;;;;;5098730;28;20047;-77
2023/08/05 10:08:12;;;;;;;8.00;5.15;;;15.40;84.90;;;;;;5093251;28;20495;-77
2023/08/05 10:10:39;;;;;;;11.85;5.18;;;15.40;84.90;;;;;;5074801;28;20044;-76
2023/08/05 10:13:16;;;;;;;10.75;5.60;;;15.50;84.70;;;;;;5097591;28;20035;-77
2023/08/05 10:15:46;;;;;;;10.55;4.97;;;15.50;84.80;;;;;;5078254;28;20500;-77
2023/08/05 10:18:15;;;;;;;8.35;5.57;;;15.40;84.60;;;;;;5094453;28;20042;-77
2023/08/05 10:20:43;;;;;;;7.45;4.90;;;15.40;84.70;;;;;;5091024;28;20028;-77
2023/08/05 10:23:13;;;;;;;9.50;5.05;;;15.40;84.70;;;;;;5110933;28;20040;-77
2023/08/05 10:25:44;;;;;;;9.10;5.30;;;15.40;84.60;;;;;;5110988;28;20039;-76
2023/08/05 10:28:27;;;;;;;10.02;5.32;;;15.50;84.60;;;;;;5093597;28;20031;-76
2023/08/05 10:30:57;;;;;;;9.55;4.82;;;15.40;84.60;;;;;;5098748;28;20051;-77
2023/08/05 10:33:25;;;;;;;9.98;5.28;;;15.50;84.70;;;;;;5111286;28;20041;-75
2023/08/05 10:36:00;;;;;;;8.00;4.80;;;15.50;84.90;;;;;;5088369;28;20035;-76
2023/08/05 10:38:27;;;;;;;10.85;5.25;;;15.50;85.40;;;;;;5076568;28;20105;-76
2023/08/05 10:40:56;;;;;;;9.85;4.60;;;15.50;85.50;;;;;;5101808;28;20446;-76
2023/08/05 10:43:27;;;;;;;12.63;5.00;;;15.50;86.10;;;;;;5090202;28;20074;-75
2023/08/05 10:45:54;;;;;;;14.60;4.57;;;15.50;86.10;;;;;;5096792;28;20032;-76
2023/08/05 10:48:27;;;;;;;9.88;4.00;;;15.50;86.30;;;;;;5092171;28;20477;-74
2023/08/05 10:50:54;;;;;;;12.05;4.38;;;15.50;86.60;;;;;;5091988;28;20558;-75
2023/08/05 10:53:21;;;;;;;13.05;3.90;;;15.60;86.60;;;;;;5081874;28;20032;-75
2023/08/05 10:55:49;;;;;;;11.15;4.20;;;15.60;86.70;;;;;;5072364;28;20024;-75
2023/08/05 10:58:37;;;;;;;14.82;3.58;;;15.60;87.00;;;;;;5072237;28;20047;-75
2023/08/05 11:01:05;;;;;;;11.18;4.53;;;15.60;87.90;;;;;;5092230;28;20063;-80
2023/08/05 11:03:33;;;;;;;15.65;3.90;;;15.50;88.50;;;;;;5090455;28;20035;-71
2023/08/05 11:06:04;;;;;;;13.52;3.28;;;15.50;88.60;;;;;;5092032;27;20031;-71
2023/08/05 11:08:35;;;;;;;17.40;3.42;;;15.50;89.50;;;;;;5070809;28;20085;-72
2023/08/05 11:11:02;;;;;;;;;;;15.50;89.70;;;;;;5096623;28;20150;-72
2023/08/05 11:13:33;;;;;;;15.18;2.80;;;15.50;90.50;;;;;;5112619;28;20315;-72
2023/08/05 11:16:13;;;;;;;12.30;1.95;;;15.50;90.80;;;;;;5112630;28;20020;-72
2023/08/05 11:18:42;;;;;;;12.55;2.42;;;15.40;90.90;;;;;;5100384;28;20059;-72
2023/08/05 11:21:15;;;;;;;12.27;2.95;;;15.40;91.10;;;;;;5096176;28;20562;-72
2023/08/05 11:23:45;;;;;;;11.95;2.50;;;15.40;91.40;;;;;;5112545;28;20031;-72
2023/08/05 11:26:13;;;;;;;39.25;6.07;;;15.40;91.80;;;;;;5076133;28;20032;-68
2023/08/05 11:28:46;;;;;;;103.13;6.57;;;15.40;92.80;;;;;;5110475;28;20031;-70
2023/08/05 11:31:26;;;;;;;20.85;3.33;;;15.20;94.40;;;;;;5098395;28;20050;-69
2023/08/05 11:33:54;;;;;;;29.38;3.25;;;15.00;94.90;;;;;;5094625;28;20103;-69
2023/08/05 11:36:28;;;;;;;26.77;3.55;;;14.80;95.50;;;;;;5110891;28;20136;-68
2023/08/05 11:39:00;;;;;;;34.05;3.88;;;14.70;95.90;;;;;;5112177;28;20053;-67
2023/08/05 11:41:27;;;;;;;26.98;3.67;;;14.80;96.30;;;;;;5076662;28;20032;-67
2023/08/05 11:43:55;;;;;;;25.45;3.28;;;14.80;96.50;;;;;;5073858;28;20039;-67
2023/08/05 11:46:29;;;;;;;28.38;3.45;;;14.90;96.70;;;;;;5074338;28;20039;-68
2023/08/05 11:49:13;;;;;;;35.20;4.55;;;14.80;96.70;;;;;;5074053;28;20077;-68
2023/08/05 11:51:52;;;;;;;30.42;3.72;;;14.90;96.80;;;;;;5074549;28;20046;-68
2023/08/05 11:54:32;;;;;;;42.80;4.73;;;14.90;96.90;;;;;;5091935;28;20066;-67
2023/08/05 11:57:00;;;;;;;25.13;3.70;;;14.90;97.00;;;;;;5074760;28;20256;-67
2023/08/05 11:59:42;;;;;;;34.90;4.03;;;14.90;97.10;;;;;;5096431;28;20059;-66
2023/08/05 12:02:10;;;;;;;28.63;4.50;;;14.90;97.10;;;;;;5107988;28;20385;-68
2023/08/05 12:04:47;;;;;;;40.22;4.10;;;15.00;97.20;;;;;;5099909;28;20035;-68
2023/08/05 12:07:16;;;;;;;32.70;4.53;;;15.00;97.20;;;;;;5077873;28;20103;-68
2023/08/05 12:09:43;;;;;;;45.75;4.97;;;14.90;97.30;;;;;;5095882;28;20028;-69
2023/08/05 12:12:20;;;;;;;24.13;3.63;;;14.90;97.30;;;;;;5096086;28;20047;-68
2023/08/05 12:14:47;;;;;;;27.95;4.25;;;14.80;97.30;;;;;;5095393;28;20482;-68
2023/08/05 12:17:14;;;;;;;38.30;3.95;;;14.80;97.40;;;;;;5077779;28;20062;-67
2023/08/05 12:19:41;;;;;;;41.72;4.10;;;14.80;97.40;;;;;;5095983;28;20147;-67
2023/08/05 12:22:09;;;;;;;39.35;4.22;;;14.80;97.50;;;;;;5110658;28;20035;-67
2023/08/05 12:24:36;;;;;;;30.00;4.20;;;14.80;97.60;;;;;;5116276;28;20397;-67
2023/08/05 12:27:03;;;;;;;31.83;4.20;;;14.80;97.60;;;;;;5116279;28;20032;-67
2023/08/05 12:29:31;;;;;;;28.15;3.97;;;14.80;97.60;;;;;;5108599;28;20036;-66
2023/08/05 12:31:58;;;;;;;30.05;4.95;;;14.80;97.70;;;;;;5108571;28;20044;-66
2023/08/05 12:34:25;;;;;;;24.10;4.30;;;14.80;97.70;;;;;;5116045;28;20097;-66
2023/08/05 12:36:52;;;;;;;32.08;4.00;;;14.80;97.70;;;;;;5116061;28;20063;-67
2023/08/05 12:39:19;;;;;;;27.65;3.88;;;14.80;97.70;;;;;;5115406;28;20111;-66
2023/08/05 12:41:47;;;;;;;33.50;4.70;;;14.80;97.70;;;;;;5114941;28;20040;-67
2023/08/05 12:44:14;;;;;;;32.00;4.60;;;14.70;97.80;;;;;;5113695;28;20057;-68
2023/08/05 12:46:41;;;;;;;29.58;4.40;;;14.70;97.80;;;;;;5115832;28;20042;-66
2023/08/05 12:49:08;;;;;;;31.15;4.10;;;14.70;97.80;;;;;;5116035;28;20370;-67
2023/08/05 12:51:35;;;;;;;35.38;5.18;;;14.70;97.80;;;;;;5115088;28;20048;-66
2023/08/05 12:54:03;;;;;;;31.40;4.03;;;14.70;97.90;;;;;;5115604;28;20031;-66
2023/08/05 12:56:30;;;;;;;31.20;3.92;;;14.70;97.90;;;;;;5098319;28;20040;-66
2023/08/05 12:58:57;;;;;;;31.73;4.60;;;14.70;97.90;;;;;;5095026;28;20031;-66
2023/08/05 13:01:24;;;;;;;27.73;4.18;;;14.70;97.90;;;;;;5103240;28;20036;-66
2023/08/05 13:03:51;;;;;;;34.15;4.60;;;14.80;97.90;;;;;;5114514;28;20047;-66
2023/08/05 13:06:19;;;;;;;32.28;4.57;;;14.80;97.90;;;;;;5115445;28;20035;-66
2023/08/05 13:08:46;;;;;;;32.47;4.00;;;14.80;97.90;;;;;;5102387;28;20024;-66
2023/08/05 13:11:13;;;;;;;29.85;3.95;;;14.80;98.00;;;;;;5115025;28;20040;-66
2023/08/05 13:13:40;;;;;;;37.65;4.72;;;14.80;98.00;;;;;;5106269;28;20032;-66
2023/08/05 13:16:07;;;;;;;29.13;4.10;;;14.80;98.00;;;;;;5095958;28;20243;-66
2023/08/05 13:18:35;;;;;;;32.55;4.43;;;14.80;98.00;;;;;;5113093;28;20028;-66
2023/08/05 13:21:02;;;;;;;30.23;4.32;;;14.80;98.00;;;;;;5115560;28;20039;-66
2023/08/05 13:23:29;;;;;;;40.38;4.28;;;14.80;98.00;;;;;;5111388;28;20044;-66
2023/08/05 13:25:56;;;;;;;24.50;4.75;;;14.70;98.00;;;;;;5094894;28;20040;-66
2023/08/05 13:28:24;;;;;;;28.08;4.20;;;14.70;98.00;;;;;;5096882;28;20496;-66
2023/08/05 13:30:51;;;;;;;27.45;3.28;;;14.50;98.00;;;;;;5114448;28;20097;-66
2023/08/05 13:33:18;;;;;;;32.15;4.03;;;14.50;98.00;;;;;;5113769;28;20036;-66
2023/08/05 13:35:47;;;;;;;22.52;3.95;;;14.50;98.10;;;;;;5114877;28;20028;-66
2023/08/05 13:38:14;;;;;;;42.28;4.72;;;14.50;98.00;;;;;;5113557;28;20164;-66
2023/08/05 13:40:41;;;;;;;26.40;3.22;;;14.50;98.10;;;;;;5109136;28;20115;-67
2023/08/05 13:43:09;;;;;;;29.10;4.00;;;14.50;98.00;;;;;;5096061;28;20032;-67
2023/08/05 13:45:36;;;;;;;29.80;3.70;;;14.40;98.00;;;;;;5099936;28;20047;-67
2023/08/05 13:48:03;;;;;;;17.65;3.10;;;14.40;98.10;;;;;;5097872;28;20119;-67
2023/08/05 13:50:30;;;;;;;31.85;4.03;;;14.30;98.10;;;;;;5095005;28;20389;-67
2023/08/05 13:52:58;;;;;;;28.52;3.67;;;14.40;98.10;;;;;;5095539;28;20064;-67
2023/08/05 13:55:25;;;;;;;26.45;4.00;;;14.40;98.10;;;;;;5114658;28;20055;-66
2023/08/05 13:57:52;;;;;;;25.65;3.92;;;14.30;98.10;;;;;;5114753;28;20115;-66
2023/08/05 14:00:19;;;;;;;24.88;4.45;;;14.30;98.10;;;;;;5114383;28;20058;-66
2023/08/05 14:02:46;;;;;;;29.92;4.03;;;14.30;98.10;;;;;;5108260;28;20059;-66
2023/08/05 14:05:14;;;;;;;30.50;3.83;;;14.20;98.10;;;;;;5113822;28;20039;-67
2023/08/05 14:07:41;;;;;;;34.75;4.57;;;14.20;98.20;;;;;;5114428;28;20058;-66
2023/08/05 14:10:08;;;;;;;27.23;3.60;;;14.20;98.20;;;;;;5113456;28;20115;-66
2023/08/05 14:12:36;;;;;;;31.75;4.07;;;14.10;98.10;;;;;;5111465;28;20093;-66
2023/08/05 14:15:04;;;;;;;30.92;3.47;;;14.10;98.10;;;;;;5105500;28;20040;-67
2023/08/05 14:17:32;;;;;;;25.63;3.10;;;14.10;98.20;;;;;;5093512;28;20086;-66
2023/08/05 14:19:59;;;;;;;36.65;3.83;;;14.20;98.20;;;;;;5093709;28;20036;-66
2023/08/05 14:22:27;;;;;;;23.33;4.05;;;14.20;98.20;;;;;;5105174;28;20032;-66
2023/08/05 14:24:54;;;;;;;28.30;3.45;;;14.20;98.20;;;;;;5113398;28;20116;-66
2023/08/05 14:27:21;;;;;;;26.05;3.45;;;14.20;98.10;;;;;;5101874;28;20040;-66
2023/08/05 14:29:48;;;;;;;24.58;3.42;;;14.20;98.10;;;;;;5075374;28;20538;-66
2023/08/05 14:32:15;;;;;;;23.27;3.13;;;14.20;98.10;;;;;;5107545;28;20099;-66
2023/08/05 14:34:42;;;;;;;29.33;3.47;;;14.30;98.00;;;;;;5112934;28;20032;-66
2023/08/05 14:37:10;;;;;;;28.70;3.53;;;14.20;98.00;;;;;;5113744;28;20042;-67
2023/08/05 14:39:37;;;;;;;32.70;3.13;;;14.20;98.00;;;;;;5099623;28;20375;-66
2023/08/05 14:42:04;;;;;;;30.45;3.55;;;14.20;98.00;;;;;;5108370;28;20040;-66
2023/08/05 14:44:32;;;;;;;25.15;3.60;;;14.20;98.00;;;;;;5110710;28;20047;-66
2023/08/05 14:46:59;;;;;;;26.23;3.72;;;14.20;98.00;;;;;;5111145;28;20039;-66
2023/08/05 14:49:26;;;;;;;22.48;3.40;;;14.20;97.90;;;;;;5111429;28;20100;-66
2023/08/05 14:51:53;;;;;;;22.70;3.10;;;14.20;97.80;;;;;;5095275;28;20044;-66
2023/08/05 14:54:21;;;;;;;29.25;3.05;;;14.20;97.90;;;;;;5102454;28;20035;-66
2023/08/05 14:56:48;;;;;;;22.83;2.88;;;14.20;97.80;;;;;;5111480;28;20085;-66
2023/08/05 14:59:15;;;;;;;21.58;3.10;;;14.20;97.90;;;;;;5109805;28;20121;-66
2023/08/05 15:01:42;;;;;;;17.48;2.67;;;14.20;97.80;;;;;;5112593;28;20023;-66
2023/08/05 15:04:10;;;;;;;18.65;2.92;;;14.20;97.80;;;;;;5106245;28;20043;-66
2023/08/05 15:06:37;;;;;;;23.65;3.22;;;14.20;97.80;;;;;;5113579;28;20027;-66
2023/08/05 15:09:05;;;;;;;17.27;2.45;;;14.20;97.70;;;;;;5113359;28;20447;-66
2023/08/05 15:11:32;;;;;;;20.98;2.95;;;14.20;97.70;;;;;;5101063;28;20501;-66
2023/08/05 15:13:59;;;;;;;15.98;2.70;;;14.10;97.60;;;;;;5082320;28;20035;-65
2023/08/05 15:16:29;;;;;;;19.52;2.90;;;14.10;97.50;;;;;;5092750;28;20024;-66
2023/08/05 15:18:56;;;;;;;20.02;2.70;;;14.10;97.50;;;;;;5092822;28;20028;-66
2023/08/05 15:21:24;;;;;;;20.77;2.80;;;14.10;97.50;;;;;;5092488;28;20024;-65
2023/08/05 15:23:51;;;;;;;15.95;2.85;;;14.10;97.50;;;;;;5098733;28;20031;-66
2023/08/05 15:26:18;;;;;;;19.15;2.63;;;14.00;97.40;;;;;;5111077;28;20044;-66
2023/08/05 15:28:45;;;;;;;19.70;3.17;;;14.10;97.40;;;;;;5112947;28;20362;-65
2023/08/05 15:31:19;;;;;;;11.73;2.05;;;14.20;97.40;;;;;;5104105;28;20044;-66
2023/08/05 15:33:46;;;;;;;25.70;2.88;;;14.20;97.50;;;;;;5096006;28;20039;-66
2023/08/05 15:36:17;;;;;;;17.48;3.13;;;14.10;97.30;;;;;;5109500;28;20070;-67
2023/08/05 15:38:45;;;;;;;16.48;2.63;;;14.00;97.20;;;;;;5091408;28;20478;-68
2023/08/05 15:41:12;;;;;;;19.40;3.05;;;14.00;97.10;;;;;;5109797;28;20081;-68
2023/08/05 15:43:39;;;;;;;21.25;3.17;;;14.00;97.00;;;;;;5091351;28;20569;-68
2023/08/05 15:46:07;;;;;;;21.70;3.08;;;14.20;97.10;;;;;;5105240;28;20035;-68
2023/08/05 15:48:34;;;;;;;21.75;3.47;;;14.20;97.20;;;;;;5102489;28;20031;-68
2023/08/05 15:51:05;;;;;;;22.33;3.38;;;14.10;97.00;;;;;;5108971;28;20048;-68
2023/08/05 15:53:32;;;;;;;18.92;3.20;;;14.10;97.00;;;;;;5087640;28;20031;-68
2023/08/05 15:56:00;;;;;;;18.42;3.53;;;14.10;96.90;;;;;;5091668;28;20067;-67
2023/08/05 15:58:28;;;;;;;23.25;3.20;;;14.00;96.90;;;;;;5096913;28;20039;-69
2023/08/05 16:01:06;;;;;;;20.30;3.10;;;14.10;96.80;;;;;;5129607;28;20043;-68
2023/08/05 16:03:35;;;;;;;14.10;2.72;;;14.20;97.10;;;;;;5114601;28;20031;-69
2023/08/05 16:06:06;;;;;;;19.45;2.50;;;14.20;96.80;;;;;;5090498;28;20477;-68
2023/08/05 16:08:34;;;;;;;11.05;2.30;;;14.20;96.80;;;;;;5109417;28;20075;-68
2023/08/05 16:11:12;;;;;;;16.75;2.38;;;14.20;97.10;;;;;;5110263;28;20151;-68
2023/08/05 16:13:39;;;;;;;15.02;2.47;;;14.30;97.10;;;;;;5091370;28;20520;-68
2023/08/05 16:16:16;;;;;;;15.57;2.42;;;14.30;97.20;;;;;;5083572;28;20118;-68
2023/08/05 16:18:44;;;;;;;13.75;2.58;;;14.20;97.30;;;;;;5126254;28;20023;-68
2023/08/05 16:21:21;;;;;;;13.98;2.75;;;14.20;97.30;;;;;;5081331;28;20032;-69
2023/08/05 16:23:53;;;;;;;17.08;2.90;;;14.20;97.40;;;;;;5075980;28;20036;-68
2023/08/05 16:26:21;;;;;;;14.85;2.65;;;14.20;97.40;;;;;;5071730;28;20407;-68
2023/08/05 16:28:48;;;;;;;17.80;3.35;;;14.10;97.40;;;;;;5055547;28;20631;-68
2023/08/05 16:31:18;;;;;;;16.40;2.60;;;14.00;97.50;;;;;;5091165;28;20054;-68
2023/08/05 16:33:46;;;;;;;14.15;2.40;;;14.00;97.50;;;;;;5089716;28;20114;-68
2023/08/05 16:36:13;;;;;;;18.85;2.60;;;14.00;97.60;;;;;;5109519;28;20409;-69
2023/08/05 16:38:43;;;;;;;17.67;2.70;;;14.00;97.70;;;;;;5109227;28;20035;-68
2023/08/05 16:41:10;;;;;;;16.45;2.83;;;14.00;97.50;;;;;;5091834;28;20065;-68
2023/08/05 16:43:37;;;;;;;27.88;3.13;;;13.80;97.50;;;;;;5111049;28;20067;-66
2023/08/05 16:46:07;;;;;;;18.23;2.95;;;13.80;97.60;;;;;;5075406;28;20516;-66
2023/08/05 16:48:35;;;;;;;17.08;2.53;;;13.80;97.50;;;;;;5097305;28;20489;-66
2023/08/05 16:51:02;;;;;;;17.60;2.33;;;13.70;97.30;;;;;;5115582;28;20409;-66
2023/08/05 16:53:30;;;;;;;21.10;3.33;;;13.70;97.50;;;;;;5114892;28;20503;-66
2023/08/05 16:55:57;;;;;;;20.63;2.97;;;13.70;97.50;;;;;;5111057;28;20041;-66
2023/08/05 16:58:24;;;;;;;22.23;2.67;;;13.70;97.60;;;;;;5095309;28;20482;-66
2023/08/05 17:00:54;;;;;;;22.35;3.72;;;13.70;97.50;;;;;;5095194;28;20052;-67
2023/08/05 17:03:22;;;;;;;19.63;3.07;;;13.70;97.50;;;;;;5106153;28;20031;-66
2023/08/05 17:05:51;;;;;;;20.73;3.22;;;13.70;97.50;;;;;;5115242;28;20366;-66
2023/08/05 17:08:19;;;;;;;23.90;3.20;;;13.60;97.50;;;;;;5113890;28;20533;-66
2023/08/05 17:10:46;;;;;;;20.00;3.47;;;13.60;97.60;;;;;;5112542;28;20063;-66
2023/08/05 17:13:14;;;;;;;19.27;3.08;;;13.60;97.50;;;;;;5087323;28;20501;-66
2023/08/05 17:15:44;;;;;;;14.93;3.10;;;13.60;97.50;;;;;;5114847;28;20061;-66
2023/08/05 17:18:12;;;;;;;15.98;2.42;;;13.60;97.60;;;;;;5096894;28;20539;-66
2023/08/05 17:20:40;;;;;;;22.58;4.10;;;13.60;97.60;;;;;;5105522;28;20047;-66
2023/08/05 17:23:07;;;;;;;20.27;3.45;;;13.70;97.70;;;;;;5103205;28;20118;-66
2023/08/05 17:25:42;;;;;;;25.50;3.47;;;13.70;97.70;;;;;;5114040;28;20032;-66
2023/08/05 17:28:09;;;;;;;22.02;3.40;;;13.70;97.70;;;;;;5077330;28;20031;-66
2023/08/05 17:30:36;;;;;;;22.95;3.30;;;13.70;97.60;;;;;;5077106;28;20044;-66
2023/08/05 17:33:03;;;;;;;20.98;3.58;;;13.60;97.60;;;;;;5102327;28;20051;-66
2023/08/05 17:35:34;;;;;;;19.15;3.05;;;13.60;97.60;;;;;;5114511;28;20031;-66
2023/08/05 17:38:01;;;;;;;;;;;13.60;97.60;;;;;;5094579;28;20032;-66
2023/08/05 17:40:32;;;;;;;25.13;4.00;;;13.60;97.60;;;;;;5076652;28;19916;-66
2023/08/05 17:42:59;;;;;;;19.90;3.08;;;13.60;97.60;;;;;;5083414;28;20533;-66
2023/08/05 17:45:26;;;;;;;21.27;2.85;;;13.50;97.60;;;;;;5113068;28;20036;-66
2023/08/05 17:47:54;;;;;;;21.23;3.17;;;13.50;97.60;;;;;;5105816;28;20107;-66
2023/08/05 17:50:21;;;;;;;15.75;2.63;;;13.40;97.50;;;;;;5094519;28;20119;-66
2023/08/05 17:52:48;;;;;;;21.80;3.25;;;13.40;97.60;;;;;;5094666;28;20538;-66
2023/08/05 17:55:15;;;;;;;25.77;2.85;;;13.40;97.60;;;;;;5101167;28;20036;-66
2023/08/05 17:57:42;;;;;;;23.83;3.38;;;13.30;97.60;;;;;;5107892;28;20066;-66
2023/08/05 18:00:10;;;;;;;24.35;3.50;;;13.30;97.60;;;;;;5094926;28;20086;-66
2023/08/05 18:02:37;;;;;;;20.05;2.75;;;13.30;97.70;;;;;;5114407;28;20038;-66
2023/08/05 18:05:05;;;;;;;22.67;3.53;;;13.30;97.70;;;;;;5107114;28;20031;-66
2023/08/05 18:07:32;;;;;;;24.05;3.15;;;13.30;97.70;;;;;;5106987;28;20041;-66
2023/08/05 18:10:00;;;;;;;25.92;3.67;;;13.20;97.70;;;;;;5104439;28;20107;-66
2023/08/05 18:12:28;;;;;;;24.25;3.10;;;13.20;97.70;;;;;;5093607;28;20520;-66
2023/08/05 18:14:56;;;;;;;21.90;3.00;;;13.20;97.70;;;;;;5102165;28;20059;-66
2023/08/05 18:17:23;;;;;;;22.08;2.97;;;13.20;97.70;;;;;;5104673;28;20485;-66
2023/08/05 18:19:51;;;;;;;20.83;3.05;;;13.20;97.80;;;;;;5114277;28;20507;-66
2023/08/05 18:22:18;;;;;;;18.13;2.70;;;13.20;97.80;;;;;;5103212;28;20162;-66
2023/08/05 18:24:45;;;;;;;17.60;2.40;;;13.20;97.70;;;;;;5101568;28;20024;-66
2023/08/05 18:27:12;;;;;;;22.05;2.88;;;13.30;97.70;;;;;;5112916;28;20035;-66
2023/08/05 18:29:39;;;;;;;18.02;2.90;;;13.20;97.80;;;;;;5114199;28;20081;-66
2023/08/05 18:32:07;;;;;;;21.67;2.90;;;13.20;97.70;;;;;;5108414;28;20040;-66
2023/08/05 18:34:35;;;;;;;23.27;3.03;;;13.20;97.80;;;;;;5098669;28;20023;-66
2023/08/05 18:37:04;;;;;;;21.48;2.63;;;13.20;97.80;;;;;;5111972;28;20031;-66
2023/08/05 18:39:34;;;;;;;16.02;2.78;;;13.10;97.80;;;;;;5113904;28;20028;-66
2023/08/05 18:42:02;;;;;;;;;;;13.10;97.80;;;;;;5096195;28;20046;-66
2023/08/05 18:44:30;;;;;;;17.00;2.75;;;13.10;97.80;;;;;;5113523;28;19908;-66
2023/08/05 18:46:57;;;;;;;24.35;2.75;;;13.10;97.80;;;;;;5090454;28;20034;-66